sensor_id;sensor_type;location;lat;lon;timestamp;P1;durP1;ratioP1;P2;durP2;ratioP2
67554;SDS011;54385;53.516;49.456;2023-10-31T00:02:26;2.42;;;1.75;;
67554;SDS011;54385;53.516;49.456;2023-10-31T00:04:52;2.00;;;1.70;;
67554;SDS011;54385;53.516;49.456;2023-10-31T00:07:19;2.17;;;1.67;;
67554;SDS011;54385;53.516;49.456;2023-10-31T00:09:45;2.28;;;1.65;;
67554;SDS011;54385;53.516;49.456;2023-10-31T00:12:12;1.90;;;1.70;;
67554;SDS011;54385;53.516;49.456;2023-10-31T00:14:39;1.98;;;1.73;;
67554;SDS011;54385;53.516;49.456;2023-10-31T00:17:05;2.50;;;1.58;;
67554;SDS011;54385;53.516;49.456;2023-10-31T00:19:32;2.20;;;1.60;;
67554;SDS011;54385;53.516;49.456;2023-10-31T00:22:01;1.67;;;1.40;;
67554;SDS011;54385;53.516;49.456;2023-10-31T00:24:28;1.92;;;1.55;;
67554;SDS011;54385;53.516;49.456;2023-10-31T00:26:54;1.90;;;1.70;;
67554;SDS011;54385;53.516;49.456;2023-10-31T00:29:21;1.42;;;1.30;;
67554;SDS011;54385;53.516;49.456;2023-10-31T00:31:47;2.35;;;1.60;;
67554;SDS011;54385;53.516;49.456;2023-10-31T00:34:14;2.05;;;1.55;;
67554;SDS011;54385;53.516;49.456;2023-10-31T00:36:40;2.70;;;1.70;;
67554;SDS011;54385;53.516;49.456;2023-10-31T00:39:06;2.55;;;1.60;;
67554;SDS011;54385;53.516;49.456;2023-10-31T00:41:33;1.67;;;1.40;;
67554;SDS011;54385;53.516;49.456;2023-10-31T00:43:59;1.50;;;1.40;;
67554;SDS011;54385;53.516;49.456;2023-10-31T00:46:26;1.83;;;1.50;;
67554;SDS011;54385;53.516;49.456;2023-10-31T00:48:52;1.70;;;1.40;;
67554;SDS011;54385;53.516;49.456;2023-10-31T00:51:18;2.42;;;1.95;;
67554;SDS011;54385;53.516;49.456;2023-10-31T00:53:45;2.00;;;1.50;;
67554;SDS011;54385;53.516;49.456;2023-10-31T00:56:11;2.13;;;1.58;;
67554;SDS011;54385;53.516;49.456;2023-10-31T00:58:38;2.10;;;1.70;;
67554;SDS011;54385;53.516;49.456;2023-10-31T01:01:04;1.85;;;1.50;;
67554;SDS011;54385;53.516;49.456;2023-10-31T01:03:31;2.10;;;1.50;;
67554;SDS011;54385;53.516;49.456;2023-10-31T01:05:57;1.60;;;1.38;;
67554;SDS011;54385;53.516;49.456;2023-10-31T01:08:24;2.00;;;1.60;;
67554;SDS011;54385;53.516;49.456;2023-10-31T01:10:50;2.20;;;1.50;;
67554;SDS011;54385;53.516;49.456;2023-10-31T01:13:17;1.65;;;1.42;;
67554;SDS011;54385;53.516;49.456;2023-10-31T01:15:43;1.80;;;1.42;;
67554;SDS011;54385;53.516;49.456;2023-10-31T01:18:09;1.60;;;1.33;;
67554;SDS011;54385;53.516;49.456;2023-10-31T01:20:37;1.58;;;1.40;;
67554;SDS011;54385;53.516;49.456;2023-10-31T01:23:04;1.63;;;1.38;;
67554;SDS011;54385;53.516;49.456;2023-10-31T01:25:30;2.05;;;1.40;;
67554;SDS011;54385;53.516;49.456;2023-10-31T01:27:56;2.67;;;1.73;;
67554;SDS011;54385;53.516;49.456;2023-10-31T01:30:23;1.52;;;1.27;;
67554;SDS011;54385;53.516;49.456;2023-10-31T01:32:49;1.65;;;1.35;;
67554;SDS011;54385;53.516;49.456;2023-10-31T01:35:16;1.50;;;1.30;;
67554;SDS011;54385;53.516;49.456;2023-10-31T01:37:42;1.90;;;1.50;;
67554;SDS011;54385;53.516;49.456;2023-10-31T01:40:12;1.85;;;1.27;;
67554;SDS011;54385;53.516;49.456;2023-10-31T01:42:39;2.10;;;1.40;;
67554;SDS011;54385;53.516;49.456;2023-10-31T01:45:05;1.80;;;1.60;;
67554;SDS011;54385;53.516;49.456;2023-10-31T01:47:35;1.95;;;1.40;;
67554;SDS011;54385;53.516;49.456;2023-10-31T01:50:01;1.90;;;1.33;;
67554;SDS011;54385;53.516;49.456;2023-10-31T01:52:28;1.70;;;1.10;;
67554;SDS011;54385;53.516;49.456;2023-10-31T01:54:58;1.88;;;1.30;;
67554;SDS011;54385;53.516;49.456;2023-10-31T01:57:25;1.60;;;1.30;;
67554;SDS011;54385;53.516;49.456;2023-10-31T01:59:51;1.50;;;1.40;;
67554;SDS011;54385;53.516;49.456;2023-10-31T02:02:18;2.05;;;1.60;;
67554;SDS011;54385;53.516;49.456;2023-10-31T02:04:49;1.52;;;1.30;;
67554;SDS011;54385;53.516;49.456;2023-10-31T02:07:16;1.38;;;1.13;;
67554;SDS011;54385;53.516;49.456;2023-10-31T02:09:43;2.35;;;1.50;;
67554;SDS011;54385;53.516;49.456;2023-10-31T02:12:09;1.70;;;1.42;;
67554;SDS011;54385;53.516;49.456;2023-10-31T02:14:36;2.00;;;1.48;;
67554;SDS011;54385;53.516;49.456;2023-10-31T02:17:02;2.42;;;1.50;;
67554;SDS011;54385;53.516;49.456;2023-10-31T02:19:29;1.77;;;1.30;;
67554;SDS011;54385;53.516;49.456;2023-10-31T02:21:55;1.55;;;1.13;;
67554;SDS011;54385;53.516;49.456;2023-10-31T02:24:22;1.55;;;1.20;;
67554;SDS011;54385;53.516;49.456;2023-10-31T02:26:48;1.58;;;1.25;;
67554;SDS011;54385;53.516;49.456;2023-10-31T02:29:15;1.65;;;1.20;;
67554;SDS011;54385;53.516;49.456;2023-10-31T02:31:41;1.58;;;1.40;;
67554;SDS011;54385;53.516;49.456;2023-10-31T02:34:08;1.70;;;1.30;;
67554;SDS011;54385;53.516;49.456;2023-10-31T02:36:34;2.22;;;1.35;;
67554;SDS011;54385;53.516;49.456;2023-10-31T02:39:01;1.70;;;1.33;;
67554;SDS011;54385;53.516;49.456;2023-10-31T02:41:28;2.30;;;1.70;;
67554;SDS011;54385;53.516;49.456;2023-10-31T02:43:54;2.20;;;1.50;;
67554;SDS011;54385;53.516;49.456;2023-10-31T02:46:21;2.50;;;1.52;;
67554;SDS011;54385;53.516;49.456;2023-10-31T02:48:48;2.08;;;1.50;;
67554;SDS011;54385;53.516;49.456;2023-10-31T02:51:14;1.95;;;1.27;;
67554;SDS011;54385;53.516;49.456;2023-10-31T02:53:41;2.83;;;1.40;;
67554;SDS011;54385;53.516;49.456;2023-10-31T02:56:08;1.50;;;1.20;;
67554;SDS011;54385;53.516;49.456;2023-10-31T02:58:34;1.52;;;1.33;;
67554;SDS011;54385;53.516;49.456;2023-10-31T03:01:01;1.73;;;1.38;;
67554;SDS011;54385;53.516;49.456;2023-10-31T03:03:32;1.40;;;1.10;;
67554;SDS011;54385;53.516;49.456;2023-10-31T03:06:05;1.50;;;1.38;;
67554;SDS011;54385;53.516;49.456;2023-10-31T03:08:32;1.90;;;1.30;;
67554;SDS011;54385;53.516;49.456;2023-10-31T03:11:01;1.73;;;1.30;;
67554;SDS011;54385;53.516;49.456;2023-10-31T03:13:28;1.52;;;1.38;;
67554;SDS011;54385;53.516;49.456;2023-10-31T03:15:54;1.75;;;1.23;;
67554;SDS011;54385;53.516;49.456;2023-10-31T03:18:21;2.47;;;1.25;;
67554;SDS011;54385;53.516;49.456;2023-10-31T03:20:47;1.70;;;1.30;;
67554;SDS011;54385;53.516;49.456;2023-10-31T03:23:14;2.28;;;1.20;;
67554;SDS011;54385;53.516;49.456;2023-10-31T03:25:41;1.67;;;1.35;;
67554;SDS011;54385;53.516;49.456;2023-10-31T03:28:16;2.33;;;1.45;;
67554;SDS011;54385;53.516;49.456;2023-10-31T03:30:49;2.83;;;1.63;;
67554;SDS011;54385;53.516;49.456;2023-10-31T03:33:16;2.42;;;1.85;;
67554;SDS011;54385;53.516;49.456;2023-10-31T03:35:43;4.72;;;1.80;;
67554;SDS011;54385;53.516;49.456;2023-10-31T03:38:11;2.97;;;1.75;;
67554;SDS011;54385;53.516;49.456;2023-10-31T03:40:41;2.10;;;1.65;;
67554;SDS011;54385;53.516;49.456;2023-10-31T03:43:07;2.65;;;1.90;;
67554;SDS011;54385;53.516;49.456;2023-10-31T03:45:37;2.35;;;1.42;;
67554;SDS011;54385;53.516;49.456;2023-10-31T03:48:03;2.50;;;1.92;;
67554;SDS011;54385;53.516;49.456;2023-10-31T03:50:33;3.75;;;1.90;;
67554;SDS011;54385;53.516;49.456;2023-10-31T03:53:18;3.00;;;1.90;;
67554;SDS011;54385;53.516;49.456;2023-10-31T03:55:58;1.90;;;1.60;;
67554;SDS011;54385;53.516;49.456;2023-10-31T03:58:39;3.95;;;1.83;;
67554;SDS011;54385;53.516;49.456;2023-10-31T04:01:10;2.40;;;1.50;;
67554;SDS011;54385;53.516;49.456;2023-10-31T04:03:38;4.57;;;1.67;;
67554;SDS011;54385;53.516;49.456;2023-10-31T04:06:07;2.78;;;1.98;;
67554;SDS011;54385;53.516;49.456;2023-10-31T04:08:34;2.40;;;1.70;;
67554;SDS011;54385;53.516;49.456;2023-10-31T04:13:35;3.63;;;1.90;;
67554;SDS011;54385;53.516;49.456;2023-10-31T04:16:12;3.70;;;1.80;;
67554;SDS011;54385;53.516;49.456;2023-10-31T04:18:39;3.05;;;1.70;;
67554;SDS011;54385;53.516;49.456;2023-10-31T04:21:07;2.65;;;1.60;;
67554;SDS011;54385;53.516;49.456;2023-10-31T04:23:39;3.45;;;1.73;;
67554;SDS011;54385;53.516;49.456;2023-10-31T04:26:06;4.07;;;2.00;;
67554;SDS011;54385;53.516;49.456;2023-10-31T04:31:09;7.00;;;1.88;;
67554;SDS011;54385;53.516;49.456;2023-10-31T04:33:38;2.72;;;1.80;;
67554;SDS011;54385;53.516;49.456;2023-10-31T04:36:11;3.00;;;1.60;;
67554;SDS011;54385;53.516;49.456;2023-10-31T04:38:37;1.95;;;1.50;;
67554;SDS011;54385;53.516;49.456;2023-10-31T04:41:04;3.20;;;1.90;;
67554;SDS011;54385;53.516;49.456;2023-10-31T04:43:31;2.83;;;1.67;;
67554;SDS011;54385;53.516;49.456;2023-10-31T04:46:04;2.63;;;1.80;;
67554;SDS011;54385;53.516;49.456;2023-10-31T04:48:33;2.13;;;1.67;;
67554;SDS011;54385;53.516;49.456;2023-10-31T04:51:08;3.88;;;1.77;;
67554;SDS011;54385;53.516;49.456;2023-10-31T04:53:41;3.75;;;1.88;;
67554;SDS011;54385;53.516;49.456;2023-10-31T04:56:15;4.97;;;1.90;;
67554;SDS011;54385;53.516;49.456;2023-10-31T04:58:43;2.72;;;1.70;;
67554;SDS011;54385;53.516;49.456;2023-10-31T05:01:11;4.18;;;1.88;;
67554;SDS011;54385;53.516;49.456;2023-10-31T05:03:38;3.65;;;2.00;;
67554;SDS011;54385;53.516;49.456;2023-10-31T05:06:05;2.67;;;1.50;;
67554;SDS011;54385;53.516;49.456;2023-10-31T05:08:35;5.10;;;1.90;;
67554;SDS011;54385;53.516;49.456;2023-10-31T05:11:02;6.32;;;1.85;;
67554;SDS011;54385;53.516;49.456;2023-10-31T05:13:35;4.53;;;1.60;;
67554;SDS011;54385;53.516;49.456;2023-10-31T05:16:01;2.55;;;1.65;;
67554;SDS011;54385;53.516;49.456;2023-10-31T05:18:37;3.42;;;2.22;;
67554;SDS011;54385;53.516;49.456;2023-10-31T05:21:05;4.25;;;1.90;;
67554;SDS011;54385;53.516;49.456;2023-10-31T05:23:31;3.97;;;1.80;;
67554;SDS011;54385;53.516;49.456;2023-10-31T05:25:58;1.95;;;1.75;;
67554;SDS011;54385;53.516;49.456;2023-10-31T05:28:24;3.33;;;1.88;;
67554;SDS011;54385;53.516;49.456;2023-10-31T05:30:54;5.65;;;1.98;;
67554;SDS011;54385;53.516;49.456;2023-10-31T05:33:20;3.67;;;1.70;;
67554;SDS011;54385;53.516;49.456;2023-10-31T05:35:56;3.20;;;2.17;;
67554;SDS011;54385;53.516;49.456;2023-10-31T05:38:25;3.83;;;1.80;;
67554;SDS011;54385;53.516;49.456;2023-10-31T05:40:55;4.43;;;1.95;;
67554;SDS011;54385;53.516;49.456;2023-10-31T05:43:21;3.08;;;2.05;;
67554;SDS011;54385;53.516;49.456;2023-10-31T05:45:48;3.00;;;1.90;;
67554;SDS011;54385;53.516;49.456;2023-10-31T05:48:14;3.67;;;1.90;;
67554;SDS011;54385;53.516;49.456;2023-10-31T05:50:45;3.78;;;2.15;;
67554;SDS011;54385;53.516;49.456;2023-10-31T05:56:14;2.95;;;1.88;;
67554;SDS011;54385;53.516;49.456;2023-10-31T05:58:41;3.22;;;1.95;;
67554;SDS011;54385;53.516;49.456;2023-10-31T06:01:11;4.55;;;2.28;;
67554;SDS011;54385;53.516;49.456;2023-10-31T06:03:49;4.43;;;2.20;;
67554;SDS011;54385;53.516;49.456;2023-10-31T06:06:16;3.25;;;2.20;;
67554;SDS011;54385;53.516;49.456;2023-10-31T06:08:42;2.50;;;2.13;;
67554;SDS011;54385;53.516;49.456;2023-10-31T06:11:12;3.63;;;2.20;;
67554;SDS011;54385;53.516;49.456;2023-10-31T06:13:40;3.63;;;2.25;;
67554;SDS011;54385;53.516;49.456;2023-10-31T06:16:10;3.15;;;1.95;;
67554;SDS011;54385;53.516;49.456;2023-10-31T06:18:41;4.15;;;2.75;;
67554;SDS011;54385;53.516;49.456;2023-10-31T06:21:15;3.55;;;2.13;;
67554;SDS011;54385;53.516;49.456;2023-10-31T06:23:44;3.47;;;2.35;;
67554;SDS011;54385;53.516;49.456;2023-10-31T06:26:16;2.90;;;2.13;;
67554;SDS011;54385;53.516;49.456;2023-10-31T06:28:44;5.18;;;2.55;;
67554;SDS011;54385;53.516;49.456;2023-10-31T06:31:11;4.05;;;2.28;;
67554;SDS011;54385;53.516;49.456;2023-10-31T06:33:38;3.15;;;2.35;;
67554;SDS011;54385;53.516;49.456;2023-10-31T06:36:04;2.78;;;2.22;;
67554;SDS011;54385;53.516;49.456;2023-10-31T06:38:32;6.55;;;2.72;;
67554;SDS011;54385;53.516;49.456;2023-10-31T06:40:59;4.35;;;2.55;;
67554;SDS011;54385;53.516;49.456;2023-10-31T06:43:32;3.67;;;2.53;;
67554;SDS011;54385;53.516;49.456;2023-10-31T06:46:00;4.38;;;2.45;;
67554;SDS011;54385;53.516;49.456;2023-10-31T06:48:29;4.30;;;2.80;;
67554;SDS011;54385;53.516;49.456;2023-10-31T06:50:56;4.47;;;2.50;;
67554;SDS011;54385;53.516;49.456;2023-10-31T06:53:25;3.30;;;2.60;;
67554;SDS011;54385;53.516;49.456;2023-10-31T06:55:55;5.07;;;2.78;;
67554;SDS011;54385;53.516;49.456;2023-10-31T06:58:22;4.05;;;2.40;;
67554;SDS011;54385;53.516;49.456;2023-10-31T07:00:53;3.83;;;2.30;;
67554;SDS011;54385;53.516;49.456;2023-10-31T07:03:24;4.40;;;2.53;;
67554;SDS011;54385;53.516;49.456;2023-10-31T07:05:50;4.43;;;2.67;;
67554;SDS011;54385;53.516;49.456;2023-10-31T07:08:17;5.20;;;2.90;;
67554;SDS011;54385;53.516;49.456;2023-10-31T07:10:46;6.82;;;2.88;;
67554;SDS011;54385;53.516;49.456;2023-10-31T07:13:16;5.18;;;2.72;;
67554;SDS011;54385;53.516;49.456;2023-10-31T07:15:42;6.15;;;2.72;;
67554;SDS011;54385;53.516;49.456;2023-10-31T07:18:10;3.92;;;2.55;;
67554;SDS011;54385;53.516;49.456;2023-10-31T07:20:36;5.13;;;2.60;;
67554;SDS011;54385;53.516;49.456;2023-10-31T07:23:03;6.43;;;3.13;;
67554;SDS011;54385;53.516;49.456;2023-10-31T07:25:29;7.00;;;2.88;;
67554;SDS011;54385;53.516;49.456;2023-10-31T07:27:58;3.85;;;2.60;;
67554;SDS011;54385;53.516;49.456;2023-10-31T07:30:26;7.32;;;2.88;;
67554;SDS011;54385;53.516;49.456;2023-10-31T07:32:56;5.85;;;3.05;;
67554;SDS011;54385;53.516;49.456;2023-10-31T07:35:28;7.35;;;2.78;;
67554;SDS011;54385;53.516;49.456;2023-10-31T07:38:24;6.35;;;2.70;;
67554;SDS011;54385;53.516;49.456;2023-10-31T07:41:12;6.60;;;3.28;;
67554;SDS011;54385;53.516;49.456;2023-10-31T07:44:04;5.25;;;2.70;;
67554;SDS011;54385;53.516;49.456;2023-10-31T07:47:00;5.70;;;3.00;;
67554;SDS011;54385;53.516;49.456;2023-10-31T07:49:26;8.55;;;3.25;;
67554;SDS011;54385;53.516;49.456;2023-10-31T07:51:53;7.10;;;3.08;;
67554;SDS011;54385;53.516;49.456;2023-10-31T07:54:21;9.50;;;3.08;;
67554;SDS011;54385;53.516;49.456;2023-10-31T07:57:03;5.20;;;3.17;;
67554;SDS011;54385;53.516;49.456;2023-10-31T07:59:43;7.05;;;3.15;;
67554;SDS011;54385;53.516;49.456;2023-10-31T08:02:10;5.85;;;3.20;;
67554;SDS011;54385;53.516;49.456;2023-10-31T08:04:47;3.78;;;2.70;;
67554;SDS011;54385;53.516;49.456;2023-10-31T08:07:19;6.65;;;3.13;;
67554;SDS011;54385;53.516;49.456;2023-10-31T08:09:49;4.15;;;3.00;;
67554;SDS011;54385;53.516;49.456;2023-10-31T08:12:19;6.05;;;2.97;;
67554;SDS011;54385;53.516;49.456;2023-10-31T08:14:46;4.03;;;2.95;;
67554;SDS011;54385;53.516;49.456;2023-10-31T08:17:14;6.55;;;3.10;;
67554;SDS011;54385;53.516;49.456;2023-10-31T08:20:03;5.75;;;3.40;;
67554;SDS011;54385;53.516;49.456;2023-10-31T08:22:32;5.15;;;3.05;;
67554;SDS011;54385;53.516;49.456;2023-10-31T08:24:59;4.97;;;3.15;;
67554;SDS011;54385;53.516;49.456;2023-10-31T08:27:26;4.68;;;3.20;;
67554;SDS011;54385;53.516;49.456;2023-10-31T08:29:55;4.53;;;2.90;;
67554;SDS011;54385;53.516;49.456;2023-10-31T08:32:25;5.30;;;3.38;;
67554;SDS011;54385;53.516;49.456;2023-10-31T08:34:59;5.95;;;3.20;;
67554;SDS011;54385;53.516;49.456;2023-10-31T08:37:31;4.93;;;3.13;;
67554;SDS011;54385;53.516;49.456;2023-10-31T08:39:58;5.82;;;3.20;;
67554;SDS011;54385;53.516;49.456;2023-10-31T08:42:25;4.47;;;3.03;;
67554;SDS011;54385;53.516;49.456;2023-10-31T08:44:51;5.00;;;3.40;;
67554;SDS011;54385;53.516;49.456;2023-10-31T08:47:18;4.97;;;3.00;;
67554;SDS011;54385;53.516;49.456;2023-10-31T08:49:48;5.35;;;3.45;;
67554;SDS011;54385;53.516;49.456;2023-10-31T08:52:17;5.47;;;3.03;;
67554;SDS011;54385;53.516;49.456;2023-10-31T08:54:44;7.22;;;3.67;;
67554;SDS011;54385;53.516;49.456;2023-10-31T08:57:10;6.60;;;3.25;;
67554;SDS011;54385;53.516;49.456;2023-10-31T09:00:00;6.50;;;3.13;;
67554;SDS011;54385;53.516;49.456;2023-10-31T09:02:31;4.68;;;3.22;;
67554;SDS011;54385;53.516;49.456;2023-10-31T09:05:00;5.82;;;2.92;;
67554;SDS011;54385;53.516;49.456;2023-10-31T09:07:35;10.02;;;3.22;;
67554;SDS011;54385;53.516;49.456;2023-10-31T09:10:04;6.53;;;3.42;;
67554;SDS011;54385;53.516;49.456;2023-10-31T09:12:34;7.45;;;3.03;;
67554;SDS011;54385;53.516;49.456;2023-10-31T09:15:05;6.20;;;2.80;;
67554;SDS011;54385;53.516;49.456;2023-10-31T09:17:35;3.30;;;2.33;;
67554;SDS011;54385;53.516;49.456;2023-10-31T09:20:02;4.80;;;2.72;;
67554;SDS011;54385;53.516;49.456;2023-10-31T09:22:29;3.97;;;2.60;;
67554;SDS011;54385;53.516;49.456;2023-10-31T09:24:55;5.00;;;2.88;;
67554;SDS011;54385;53.516;49.456;2023-10-31T09:27:52;3.72;;;2.53;;
67554;SDS011;54385;53.516;49.456;2023-10-31T09:30:18;4.35;;;2.63;;
67554;SDS011;54385;53.516;49.456;2023-10-31T09:32:45;3.63;;;2.22;;
67554;SDS011;54385;53.516;49.456;2023-10-31T09:35:13;4.28;;;2.50;;
67554;SDS011;54385;53.516;49.456;2023-10-31T09:37:42;4.22;;;2.42;;
67554;SDS011;54385;53.516;49.456;2023-10-31T09:40:18;8.73;;;2.80;;
67554;SDS011;54385;53.516;49.456;2023-10-31T09:43:09;5.97;;;2.50;;
67554;SDS011;54385;53.516;49.456;2023-10-31T09:45:38;3.00;;;2.38;;
67554;SDS011;54385;53.516;49.456;2023-10-31T09:48:17;3.80;;;2.50;;
67554;SDS011;54385;53.516;49.456;2023-10-31T09:50:47;5.22;;;2.60;;
67554;SDS011;54385;53.516;49.456;2023-10-31T09:53:20;3.58;;;2.42;;
67554;SDS011;54385;53.516;49.456;2023-10-31T09:55:50;4.53;;;2.53;;
67554;SDS011;54385;53.516;49.456;2023-10-31T09:58:19;3.47;;;2.30;;
67554;SDS011;54385;53.516;49.456;2023-10-31T10:00:47;6.03;;;2.45;;
67554;SDS011;54385;53.516;49.456;2023-10-31T10:03:15;3.30;;;2.53;;
67554;SDS011;54385;53.516;49.456;2023-10-31T10:05:43;4.03;;;2.58;;
67554;SDS011;54385;53.516;49.456;2023-10-31T10:08:17;4.13;;;2.58;;
67554;SDS011;54385;53.516;49.456;2023-10-31T10:10:43;3.80;;;2.50;;
67554;SDS011;54385;53.516;49.456;2023-10-31T10:13:10;4.13;;;2.45;;
67554;SDS011;54385;53.516;49.456;2023-10-31T10:15:48;4.20;;;2.13;;
67554;SDS011;54385;53.516;49.456;2023-10-31T10:18:25;3.10;;;2.42;;
67554;SDS011;54385;53.516;49.456;2023-10-31T10:20:56;3.55;;;2.50;;
67554;SDS011;54385;53.516;49.456;2023-10-31T10:23:23;3.75;;;2.40;;
67554;SDS011;54385;53.516;49.456;2023-10-31T10:25:50;3.85;;;2.72;;
67554;SDS011;54385;53.516;49.456;2023-10-31T10:28:18;4.05;;;2.70;;
67554;SDS011;54385;53.516;49.456;2023-10-31T10:30:52;3.60;;;2.50;;
67554;SDS011;54385;53.516;49.456;2023-10-31T10:33:22;6.03;;;2.80;;
67554;SDS011;54385;53.516;49.456;2023-10-31T10:36:01;4.68;;;2.78;;
67554;SDS011;54385;53.516;49.456;2023-10-31T10:38:28;4.38;;;2.70;;
67554;SDS011;54385;53.516;49.456;2023-10-31T10:41:25;4.60;;;2.83;;
67554;SDS011;54385;53.516;49.456;2023-10-31T10:44:18;4.68;;;2.80;;
67554;SDS011;54385;53.516;49.456;2023-10-31T10:47:14;4.80;;;3.08;;
67554;SDS011;54385;53.516;49.456;2023-10-31T10:49:42;3.40;;;2.47;;
67554;SDS011;54385;53.516;49.456;2023-10-31T10:52:13;4.13;;;2.63;;
67554;SDS011;54385;53.516;49.456;2023-10-31T10:57:37;3.97;;;2.60;;
67554;SDS011;54385;53.516;49.456;2023-10-31T11:00:11;3.92;;;2.30;;
67554;SDS011;54385;53.516;49.456;2023-10-31T11:02:39;5.00;;;2.65;;
67554;SDS011;54385;53.516;49.456;2023-10-31T11:05:09;5.28;;;2.35;;
67554;SDS011;54385;53.516;49.456;2023-10-31T11:07:37;5.60;;;2.40;;
67554;SDS011;54385;53.516;49.456;2023-10-31T11:10:04;6.43;;;2.33;;
67554;SDS011;54385;53.516;49.456;2023-10-31T11:12:32;5.97;;;2.50;;
67554;SDS011;54385;53.516;49.456;2023-10-31T11:15:01;4.57;;;2.13;;
67554;SDS011;54385;53.516;49.456;2023-10-31T11:17:31;4.13;;;2.50;;
67554;SDS011;54385;53.516;49.456;2023-10-31T11:20:07;3.58;;;2.50;;
67554;SDS011;54385;53.516;49.456;2023-10-31T11:22:39;3.13;;;2.13;;
67554;SDS011;54385;53.516;49.456;2023-10-31T11:25:07;4.20;;;2.70;;
67554;SDS011;54385;53.516;49.456;2023-10-31T11:27:38;3.70;;;2.40;;
67554;SDS011;54385;53.516;49.456;2023-10-31T11:30:28;3.78;;;2.33;;
67554;SDS011;54385;53.516;49.456;2023-10-31T11:32:57;5.60;;;2.42;;
67554;SDS011;54385;53.516;49.456;2023-10-31T11:35:24;2.95;;;2.28;;
67554;SDS011;54385;53.516;49.456;2023-10-31T11:38:03;4.65;;;2.40;;
67554;SDS011;54385;53.516;49.456;2023-10-31T11:40:34;3.08;;;2.33;;
67554;SDS011;54385;53.516;49.456;2023-10-31T11:43:02;3.95;;;2.10;;
67554;SDS011;54385;53.516;49.456;2023-10-31T11:45:32;4.32;;;2.30;;
67554;SDS011;54385;53.516;49.456;2023-10-31T11:48:03;3.25;;;2.25;;
67554;SDS011;54385;53.516;49.456;2023-10-31T11:50:31;3.55;;;2.10;;
67554;SDS011;54385;53.516;49.456;2023-10-31T11:53:11;3.33;;;2.20;;
67554;SDS011;54385;53.516;49.456;2023-10-31T11:55:48;2.85;;;2.13;;
67554;SDS011;54385;53.516;49.456;2023-10-31T11:58:19;3.50;;;2.10;;
67554;SDS011;54385;53.516;49.456;2023-10-31T12:01:07;3.15;;;2.10;;
67554;SDS011;54385;53.516;49.456;2023-10-31T12:03:45;5.22;;;2.70;;
67554;SDS011;54385;53.516;49.456;2023-10-31T12:06:15;4.38;;;2.47;;
67554;SDS011;54385;53.516;49.456;2023-10-31T12:08:43;4.65;;;2.50;;
67554;SDS011;54385;53.516;49.456;2023-10-31T12:11:28;2.72;;;2.00;;
67554;SDS011;54385;53.516;49.456;2023-10-31T12:16:36;4.07;;;2.25;;
67554;SDS011;54385;53.516;49.456;2023-10-31T12:19:04;3.38;;;2.03;;
67554;SDS011;54385;53.516;49.456;2023-10-31T12:24:15;3.45;;;2.30;;
67554;SDS011;54385;53.516;49.456;2023-10-31T12:26:44;2.60;;;2.00;;
67554;SDS011;54385;53.516;49.456;2023-10-31T12:31:46;3.38;;;2.20;;
67554;SDS011;54385;53.516;49.456;2023-10-31T12:34:18;3.42;;;2.20;;
67554;SDS011;54385;53.516;49.456;2023-10-31T12:36:49;4.20;;;2.25;;
67554;SDS011;54385;53.516;49.456;2023-10-31T12:39:25;3.33;;;2.20;;
67554;SDS011;54385;53.516;49.456;2023-10-31T12:41:58;5.20;;;2.13;;
67554;SDS011;54385;53.516;49.456;2023-10-31T12:44:25;3.10;;;2.30;;
67554;SDS011;54385;53.516;49.456;2023-10-31T12:46:54;3.58;;;1.95;;
67554;SDS011;54385;53.516;49.456;2023-10-31T12:49:23;2.95;;;2.00;;
67554;SDS011;54385;53.516;49.456;2023-10-31T12:51:57;2.28;;;1.90;;
67554;SDS011;54385;53.516;49.456;2023-10-31T12:54:45;3.72;;;1.98;;
67554;SDS011;54385;53.516;49.456;2023-10-31T12:57:11;2.95;;;1.83;;
67554;SDS011;54385;53.516;49.456;2023-10-31T12:59:41;3.10;;;1.92;;
67554;SDS011;54385;53.516;49.456;2023-10-31T13:02:10;2.80;;;2.00;;
67554;SDS011;54385;53.516;49.456;2023-10-31T13:04:43;2.83;;;2.10;;
67554;SDS011;54385;53.516;49.456;2023-10-31T13:07:12;2.70;;;1.90;;
67554;SDS011;54385;53.516;49.456;2023-10-31T13:09:38;2.80;;;2.00;;
67554;SDS011;54385;53.516;49.456;2023-10-31T13:12:07;3.08;;;1.85;;
67554;SDS011;54385;53.516;49.456;2023-10-31T13:14:34;2.28;;;1.80;;
67554;SDS011;54385;53.516;49.456;2023-10-31T13:17:05;2.90;;;1.85;;
67554;SDS011;54385;53.516;49.456;2023-10-31T13:19:34;3.17;;;1.90;;
67554;SDS011;54385;53.516;49.456;2023-10-31T13:22:01;2.45;;;1.77;;
67554;SDS011;54385;53.516;49.456;2023-10-31T13:24:27;2.80;;;2.00;;
67554;SDS011;54385;53.516;49.456;2023-10-31T13:26:54;2.83;;;1.90;;
67554;SDS011;54385;53.516;49.456;2023-10-31T13:29:20;2.72;;;1.90;;
67554;SDS011;54385;53.516;49.456;2023-10-31T13:31:47;2.88;;;2.10;;
67554;SDS011;54385;53.516;49.456;2023-10-31T13:34:13;3.45;;;2.20;;
67554;SDS011;54385;53.516;49.456;2023-10-31T13:36:39;2.50;;;1.80;;
67554;SDS011;54385;53.516;49.456;2023-10-31T13:39:06;3.00;;;1.90;;
67554;SDS011;54385;53.516;49.456;2023-10-31T13:41:34;2.70;;;1.92;;
67554;SDS011;54385;53.516;49.456;2023-10-31T13:44:00;2.50;;;1.83;;
67554;SDS011;54385;53.516;49.456;2023-10-31T13:46:29;3.38;;;2.10;;
67554;SDS011;54385;53.516;49.456;2023-10-31T13:48:55;2.63;;;1.85;;
67554;SDS011;54385;53.516;49.456;2023-10-31T13:51:21;2.80;;;1.90;;
67554;SDS011;54385;53.516;49.456;2023-10-31T13:53:48;2.92;;;1.90;;
67554;SDS011;54385;53.516;49.456;2023-10-31T13:56:16;2.88;;;1.80;;
67554;SDS011;54385;53.516;49.456;2023-10-31T13:58:46;2.72;;;2.00;;
67554;SDS011;54385;53.516;49.456;2023-10-31T14:01:13;2.42;;;1.92;;
67554;SDS011;54385;53.516;49.456;2023-10-31T14:03:40;2.28;;;1.85;;
67554;SDS011;54385;53.516;49.456;2023-10-31T14:06:06;2.15;;;1.45;;
67554;SDS011;54385;53.516;49.456;2023-10-31T14:08:33;2.78;;;1.77;;
67554;SDS011;54385;53.516;49.456;2023-10-31T14:10:59;2.63;;;1.83;;
67554;SDS011;54385;53.516;49.456;2023-10-31T14:13:31;2.83;;;1.83;;
67554;SDS011;54385;53.516;49.456;2023-10-31T14:15:57;2.53;;;1.80;;
67554;SDS011;54385;53.516;49.456;2023-10-31T14:18:24;3.33;;;2.20;;
67554;SDS011;54385;53.516;49.456;2023-10-31T14:20:51;2.10;;;1.52;;
67554;SDS011;54385;53.516;49.456;2023-10-31T14:23:17;2.42;;;1.88;;
67554;SDS011;54385;53.516;49.456;2023-10-31T14:25:44;3.28;;;1.73;;
67554;SDS011;54385;53.516;49.456;2023-10-31T14:28:10;2.53;;;1.58;;
67554;SDS011;54385;53.516;49.456;2023-10-31T14:30:40;2.17;;;1.65;;
67554;SDS011;54385;53.516;49.456;2023-10-31T14:33:06;2.55;;;1.70;;
67554;SDS011;54385;53.516;49.456;2023-10-31T14:35:33;2.95;;;1.92;;
67554;SDS011;54385;53.516;49.456;2023-10-31T14:38:01;2.88;;;1.73;;
67554;SDS011;54385;53.516;49.456;2023-10-31T14:40:27;2.13;;;1.75;;
67554;SDS011;54385;53.516;49.456;2023-10-31T14:42:53;2.35;;;1.70;;
67554;SDS011;54385;53.516;49.456;2023-10-31T14:45:20;2.30;;;1.50;;
67554;SDS011;54385;53.516;49.456;2023-10-31T14:47:46;2.20;;;1.70;;
67554;SDS011;54385;53.516;49.456;2023-10-31T14:50:13;3.70;;;2.03;;
67554;SDS011;54385;53.516;49.456;2023-10-31T14:52:39;3.20;;;1.65;;
67554;SDS011;54385;53.516;49.456;2023-10-31T14:55:06;3.08;;;2.05;;
67554;SDS011;54385;53.516;49.456;2023-10-31T14:57:34;2.30;;;1.70;;
67554;SDS011;54385;53.516;49.456;2023-10-31T15:00:01;3.22;;;1.67;;
67554;SDS011;54385;53.516;49.456;2023-10-31T15:02:27;2.22;;;1.60;;
67554;SDS011;54385;53.516;49.456;2023-10-31T15:04:56;2.20;;;1.60;;
67554;SDS011;54385;53.516;49.456;2023-10-31T15:07:29;2.00;;;1.70;;